KFSD/FSD METAR and TAF weather

Enter ICAO airport designator
Station Type Date Time Source
KFSD METAR 2019/09/21 04:56 UTC NOAA

KFSD 210456Z 17016G25KT 10SM OVC060 24/18 A2983 RMK AO2 PK WND 15026/0440 SLP089 LAST T02390183


Station Type Date Time Source
KFSD Decoded METAR 2019/09/21 04:56 UTC NOAA

SIOUX FALLS FOSS FIELD, SD, United States (KFSD) 43-35N 096-45W 434M
Sep 21, 2019 - 12:56 AM EDT / 2019.09.21 0456 UTC
Wind: from the S (170 degrees) at 18 MPH (16 KT) gusting to 29 MPH (25 KT):0
Visibility: 10 mile(s):0
Sky conditions: overcast
Temperature: 75.0 F (23.9 C)
Dew Point: 64.9 F (18.3 C)
Relative Humidity: 70%
Pressure (altimeter): 29.83 in. Hg (1010 hPa)
ob: KFSD 210456Z 17016G25KT 10SM OVC060 24/18 A2983 RMK AO2 PK WND 15026/0440 SLP089 LAST T02390183
cycle: 5

Station Type Date Time Source
KFSD TAF 2019/09/20 18:30 UTC NOAA

TAF KFSD 201728Z 2018/2118 17015G28KT P6SM SCT050
FM210300 16016G23KT P6SM BKN100
FM210700 17014G22KT P6SM BKN019 PROB30 2111/2113 4SM TSRA BR OVC008CB
FM211500 21012KT P6SM OVC017
FM211600 22012G17KT P6SM BKN040

Example: see airport list